Rapports des METAR proches

 

LFAQ - Bray, France
Distance from station: SSO 19km
Mise à jour: 22/05/2018 09:30
Brume, Partiellement nuageux
Brume, Partiellement nuageux
 Vent N
Vent: N 6 km/h
Température: 15°C
Point de rosée: 12°C
Humidité: 82%
Baromètre: 1013 hPa
Résumé: Brume
Clouds: Partiellement nuageux
Visibility: 5 km
2018/05/22 07:30 LFAQ 220730Z AUTO 35003KT 300V030 5000 BR NSC 15/12 Q1013 NOSIG
LFQQ - Lille/Lesquin, France
Distance from station: NNE 53km
Mise à jour: 01/01/1970 01:00
NOT Current
unable to load LFQQ data RC=404 Not Found
unable to load LFQQ data RC=404 Not Found
 
EBCV - Chievres Ab, Belgium
Distance from station: NE 88km
Mise à jour: 22/05/2018 09:25
Clair
Clair
 Vent varies
Vent: varies 2 km/h
Température: 17°C
Point de rosée: 14°C
Humidité: 83%
Baromètre: 1013 hPa
Clouds: Clair
Visibility: 6 km
2018/05/22 07:25 EBCV 220725Z AUTO VRB01KT 6000 NCD 17/14 Q1013 WHT
 
LFOB - Beauvais/Tille(A, France
Distance from station: SSO 88km
Mise à jour: 22/05/2018 09:30

 Vent varies
Vent: varies 6 km/h
Température: 15°C
Point de rosée: 11°C
Humidité: 77%
Baromètre: 1013 hPa
Visibility: 9 km
2018/05/22 07:30 LFOB 220730Z AUTO VRB03KT 9000 // ////// 15/11 Q1013
LFAT - Le Touquet/P. Pl, France
Distance from station: ONO 93km
Mise à jour: 22/05/2018 09:30
Orages avoisinants, Orage
Orages avoisinants, Orage
 Vent varies
Vent: varies 4 km/h
Température: 13°C
Point de rosée: 12°C
Humidité: 94%
Baromètre: 1013 hPa
Résumé: Orages avoisinants
Clouds: Orage
Visibility: 10 km
2018/05/22 07:30 LFAT 220730Z AUTO VRB02KT 9999 VCTS ///CB 13/12 Q1013 TEMPO 3000 SHRA
LFPC - Creil (fafb), France
Distance from station: S 100km
Mise à jour: 01/09/2016 17:00
NOT Current
Clair
Clair
 Vent ONO
Vent: ONO 7 km/h
Température: 24°C
Point de rosée: 13°C
Humidité: 50%
Baromètre: 1023 hPa
Résumé: Clair
Visibility: greater than 10 km
2016/09/01 15:00 LFPC 011500Z AUTO 30004KT 240V350 CAVOK 24/13 Q1023
 
EBFN - Koksijde (bel-Af, Belgium
Distance from station: N 105km
Mise à jour: 22/05/2018 09:33
Très nuageux
Très nuageux
 Vent N
Vent: N 13 km/h
Température: 16°C
Point de rosée: 13°C
Humidité: 83%
Baromètre: 1013 hPa
Clouds: Très nuageux
Visibility: 10 km
Cloud details: Quelques nuages 762 m
Très nuageux 3353 m
2018/05/22 07:33 EBFN 220733Z 36007KT 9999 FEW025 BKN110 16/13 Q1013 BLU BLU TEMPO WHT
EBOS - Oostende Airport, Belgium
Distance from station: N 119km
Mise à jour: 22/05/2018 09:20
Quelques nuages
Quelques nuages
 Vent NNO
Vent: NNO 7 km/h
Température: 16°C
Point de rosée: 12°C
Humidité: 77%
Baromètre: 1013 hPa
Clouds: Quelques nuages
Visibility: 10 km
Cloud details: Quelques nuages 1067 m
2018/05/22 07:20 EBOS 220720Z 34004KT 270V040 9999 FEW035 16/12 Q1013 NOSIG
EBCI - Charleroi/Gossel, Belgium
Distance from station: ENE 124km
Mise à jour: 01/01/1970 01:00
NOT Current
unable to load EBCI data RC=404 Not Found
unable to load EBCI data RC=404 Not Found
 
 
LFPG - Charles De Gaull, France
Distance from station: S 125km
Mise à jour: 22/05/2018 09:30
Partiellement nuageux
Partiellement nuageux
 Vent NNE
Vent: NNE 6 km/h
Température: 18°C
Point de rosée: 12°C
Humidité: 68%
Baromètre: 1013 hPa
Clouds: Partiellement nuageux
Visibility: 6 km
2018/05/22 07:30 LFPG 220730Z 02003KT 330V090 6000 NSC 18/12 Q1013 NOSIG
LFPT - Cormeilles Vexin, France
Distance from station: SSO 127km
Mise à jour: 22/05/2018 09:30
Partiellement nuageux
Partiellement nuageux
 Vent O
Vent: O 6 km/h
Température: 17°C
Point de rosée: 12°C
Humidité: 73%
Baromètre: 1013 hPa
Clouds: Partiellement nuageux
Visibility: 8 km
2018/05/22 07:30 LFPT 220730Z AUTO 28003KT 250V340 8000 NSC 17/12 Q1013
LFPB - Paris/Le Bourget, France
Distance from station: S 132km
Mise à jour: 22/05/2018 09:30
Clair
Clair
 Vent varies
Vent: varies 4 km/h
Température: 18°C
Point de rosée: 11°C
Humidité: 64%
Baromètre: 1013 hPa
Résumé: Clair
Visibility: greater than 10 km
2018/05/22 07:30 LFPB 220730Z AUTO VRB02KT CAVOK 18/11 Q1013 NOSIG
 
EBFS - Florennes (bel-A, Belgium
Distance from station: E 133km
Mise à jour: 22/05/2018 09:33
Très nuageux
Très nuageux
 Vent varies
Vent: varies 4 km/h
Température: 19°C
Point de rosée: 12°C
Humidité: 64%
Baromètre: 1013 hPa
Clouds: Très nuageux
Visibility: 10 km
Cloud details: Quelques nuages 4572 m
Très nuageux 7620 m
2018/05/22 07:33 EBFS 220733Z VRB02KT 9999 FEW150 BKN250 19/12 Q1013 BLU BLU
LFQA - Reims/Prunay, France
Distance from station: SE 143km
Mise à jour: 22/05/2018 09:30
Orage
Orage
 Vent NNO
Vent: NNO 6 km/h
Température: 15°C
Point de rosée: 14°C
Humidité: 94%
Baromètre: 1013 hPa
Clouds: Orage
Visibility: 10 km
2018/05/22 07:30 LFQA 220730Z AUTO 33003KT 9999 ///TCU 15/14 Q1013
LFOP - Rouen/Boos (aut), France
Distance from station: SO 144km
Mise à jour: 22/05/2018 09:30
Partiellement nuageux
Partiellement nuageux
 Vent varies
Vent: varies 4 km/h
Température: 14°C
Point de rosée: 10°C
Humidité: 77%
Baromètre: 1013 hPa
Clouds: Partiellement nuageux
Visibility: 9 km
2018/05/22 07:30 LFOP 220730Z AUTO VRB02KT 9000 NSC 14/10 Q1013 BECMG SCT050TCU
 
EBBR - Brussels Nationa, Belgium
Distance from station: NE 148km
Mise à jour: 22/05/2018 09:20
Clair
Clair
 Vent N
Vent: N 6 km/h
Température: 16°C
Point de rosée: 13°C
Humidité: 83%
Baromètre: 1012 hPa
Résumé: Clair
Visibility: greater than 10 km
2018/05/22 07:20 EBBR 220720Z 36003KT CAVOK 16/13 Q1012 NOSIG
EBBE - Beauvechain (baf, Belgium
Distance from station: ENE 156km
Mise à jour: 22/05/2018 09:33
Partiellement nuageux
Partiellement nuageux
 Vent O
Vent: O 6 km/h
Température: 17°C
Point de rosée: 14°C
Humidité: 83%
Baromètre: 1012 hPa
Clouds: Partiellement nuageux
Visibility: 10 km
Cloud details: Quelques nuages 4267 m
Partiellement nuageux 6706 m
2018/05/22 07:33 EBBE 220733Z 27003KT 9999 FEW140 SCT220 17/14 Q1012 BLU BLU
EHFS - Vlissingen, Netherlands
Distance from station: NNE 157km
Mise à jour: 22/05/2018 09:25
Partiellement nuageux
Partiellement nuageux
 Vent NNE
Vent: NNE 15 km/h
Température: 18°C
Point de rosée: 13°C
Humidité: 73%
Baromètre: 1013 hPa
Clouds: Partiellement nuageux
Visibility: 10 km
2018/05/22 07:25 EHFS 220725Z AUTO 03008KT 360V060 9999 NSC 18/13 Q1013 W///H///
 
LFPV - Villacoublay/Vel, France
Distance from station: SSO 157km
Mise à jour: 22/05/2018 09:30
Clair
Clair
 Vent N
Vent: N 9 km/h
Température: 17°C
Point de rosée: 11°C
Humidité: 68%
Baromètre: 1013 hPa
Résumé: Clair
Visibility: greater than 10 km
2018/05/22 07:30 LFPV 220730Z AUTO 36005KT 320V040 CAVOK 17/11 Q1013 TEMPO BKN035CB
EGMD - Lydd Airport, United Kingdom
Distance from station: NO 160km
Mise à jour: 22/05/2018 09:20
Clair
Clair
 Vent N
Vent: N 17 km/h
Température: 15°C
Point de rosée: 11°C
Humidité: 77%
Baromètre: 1014 hPa
Résumé: Clair
Visibility: greater than 10 km
2018/05/22 07:20 EGMD 220720Z 36009KT CAVOK 15/11 Q1014